Station: Tasman Island  

  Atmospheric Gas Attenuation - ITU Rec 676-11   ----------------- dB/100km -----------------
Date Time Temp RH % AH g/m3 Dew Point Wind Direction Speed kph Gust kph Barometer mB Rainfall Since 9am 24GHz 47GHz 76GHz 122GHz 134GHz 241GHz
06/05 12:50 15 60 7.69 7.3 2 6 1007.5 0 17.6 23.9 35.4 92.9 84.8 291.3
06/05 12:40 15 58 7.44 6.8 20 30 1007.7 0 17.1 23.5 34.5 90.4 81.7 280.4
06/05 12:30 15.3 56 7.31 6.6 30 43 1007.8 0 16.8 23.3 33.9 88.8 79.8 273.7
06/05 12:20 15.3 55 7.18 6.5 28 37 1007.9 0 16.5 23.1 33.4 87.5 78.3 268.2
06/05 12:10 15.4 55 7.23 6.6 24 30 1008 0 16.6 23.1 33.6 87.9 78.8 270.0
06/05 12:00 15.4 61 8.01 7.9 17 35 1008.2 0 18.3 24.3 36.5 95.7 88.5 304.0
06/05 11:50 15.2 64 8.31 8.4 15 22 1008.4 0 18.9 24.9 37.8 99.1 92.5 318.2
06/05 11:40 14.9 63 8.03 7.9 22 28 1008.6 0 18.3 24.5 36.8 96.6 89.3 306.9
06/05 11:30 15 60 7.69 7.3 20 32 1008.8 0 17.6 24.0 35.5 93.0 84.9 291.6
06/05 11:20 15.7 59 7.89 7.7 20 30 1009 0 18.0 24.1 35.9 94.2 86.7 297.8
06/05 09:40 14.8 60 7.6 7.1 39 46 1009.9 0 17.4 23.9 35.3 92.4 84.1 288.6
06/05 09:30 14.6 60 7.51 6.9 33 52 1010.1 0 17.2 23.8 35.0 91.8 83.2 285.4
06/05 09:20 14.5 60 7.46 6.8 37 43 1010.1 0 17.1 23.8 34.9 91.4 82.7 283.6
06/05 09:10 14.4 60 7.42 6.9 37 50 1010.3 0 17.0 23.8 34.8 91.1 82.3 282.2
06/05 09:00 14.4 60 7.42 6.7 37 56 1010.3 0 17.0 23.8 34.8 91.1 82.3 282.2
06/05 08:50 14.1 60 7.28 6.4 35 48 1010.3 0 16.8 23.6 34.4 90.0 80.9 277.2
06/05 08:40 14 59 7.12 6.3 44 56 1010.3 0 16.4 23.4 33.8 88.5 79.0 270.5
06/05 08:30 14.1 61 7.4 6.7 41 59 1010.3 0 17.0 23.8 34.8 91.2 82.4 282.4
06/05 08:20 14 62 7.48 6.8 39 50 1010.3 0 17.2 24.0 35.2 92.2 83.5 286.3
06/05 08:10 13.8 61 7.27 6.4 41 57 1010.2 0 16.8 23.7 34.5 90.3 81.0 277.7
06/05 08:00 13.7 62 7.34 6.6 43 59 1010.2 0 16.9 23.8 34.8 91.1 82.0 281.2
06/05 07:50 13.5 63 7.37 6.6 50 59 1010.2 0 17.0 23.9 35.0 91.6 82.6 283.2
06/05 07:40 13.3 64 7.39 6.6 43 52 1010.1 0 17.0 24.0 35.1 92.0 83.1 284.8
06/05 07:30 13.3 64 7.39 6.6 41 57 1010 0 17.0 24.0 35.1 92.0 83.1 284.8
06/05 07:20 13.1 64 7.3 6.4 39 48 1010.2 0 16.8 23.9 34.9 91.4 82.2 281.5
06/05 07:10 13.2 64 7.35 6.5 37 48 1010.1 0 17.0 24.0 35.0 91.8 82.7 283.4
06/05 07:00 13.1 64 7.3 6.5 39 54 1010.1 0 16.8 23.9 34.9 91.4 82.1 281.5
06/05 06:50 13.3 64 7.39 6.6 39 48 1010 0 17.0 24.0 35.1 92.0 83.1 284.8
06/05 06:40 13.2 64 7.35 6.5 41 54 1010 0 17.0 24.0 35.0 91.7 82.7 283.4
06/05 06:30 13.5 63 7.37 6.6 43 59 1010.1 0 17.0 23.9 35.0 91.6 82.6 283.2
06/05 06:20 13.5 63 7.37 6.6 41 56 1010.1 0 17.0 23.9 35.0 91.6 82.6 283.2
06/05 06:10 13.6 63 7.41 6.7 46 59 1010.1 0 17.1 23.9 35.1 91.9 83.0 284.6
06/05 06:00 13.5 63 7.37 6.6 46 70 1010.1 0 17.0 23.9 35.0 91.6 82.6 283.2
06/05 05:50 13.5 64 7.49 6.8 48 67 1010.1 0 17.2 24.1 35.4 92.8 84.1 288.5
06/05 05:40 13.4 64 7.44 6.7 41 52 1010.3 0 17.1 24.1 35.3 92.5 83.6 286.7
06/05 05:30 13.4 64 7.44 6.7 37 57 1010.4 0 17.1 24.1 35.3 92.5 83.6 286.7
06/05 05:20 13.4 64 7.44 6.7 43 59 1010.5 0 17.1 24.1 35.3 92.5 83.6 286.8
06/05 05:10 13.4 63 7.32 6.5 44 56 1010.7 0 16.9 23.9 34.9 91.3 82.1 281.5
06/05 05:00 13.4 63 7.32 6.5 35 57 1010.9 0 16.9 23.9 34.9 91.3 82.1 281.5
06/05 04:50 13.1 64 7.3 6.6 30 44 1011.1 0 16.8 23.9 34.9 91.5 82.2 281.7
06/05 04:40 13 64 7.26 6.5 26 41 1011.2 0 16.8 23.9 34.8 91.2 81.8 280.3
06/05 04:30 12.6 66 7.3 6.4 26 37 1011.2 0 16.9 24.1 35.1 92.0 82.7 283.5
06/05 04:20 12.7 65 7.24 6.3 26 35 1011.3 0 16.7 24.0 34.9 91.3 81.9 280.5
06/05 04:10 13.1 64 7.3 6.4 26 35 1011.3 0 16.8 24.0 34.9 91.5 82.2 281.8
06/05 04:00 13.1 64 7.3 6.5 30 52 1011.3 0 16.8 24.0 34.9 91.5 82.2 281.8
06/05 03:50 12.8 66 7.39 6.6 22 37 1011.1 0 17.1 24.2 35.4 92.7 83.7 286.8
06/05 03:40 12.5 67 7.37 6.5 28 44 1011.3 0 17.0 24.2 35.5 92.9 83.8 287.1
06/05 03:30 12.7 65 7.24 6.3 26 48 1011.4 0 16.7 24.0 34.9 91.3 81.9 280.6
06/05 03:20 12.9 64 7.21 6.4 30 37 1011.5 0 16.7 23.9 34.7 90.8 81.3 278.5
06/05 03:10 12.6 66 7.3 6.4 20 32 1011.6 0 16.9 24.1 35.2 92.1 82.8 283.6
06/05 03:00 12.6 66 7.3 6.4 26 43 1011.8 0 16.9 24.1 35.2 92.1 82.8 283.7
06/05 02:50 12.6 66 7.3 6.4 32 41 1011.9 0 16.9 24.1 35.2 92.1 82.8 283.7
06/05 02:40 12.6 66 7.3 6.4 37 56 1012 0 16.9 24.1 35.2 92.1 82.8 283.7
06/05 02:30 12.6 66 7.3 6.4 28 41 1012.2 0 16.9 24.1 35.2 92.1 82.8 283.8
06/05 02:20 12.7 66 7.35 6.5 30 39 1012.4 0 17.0 24.2 35.3 92.6 83.4 285.7
06/05 02:10 12.3 67 7.28 6.3 22 30 1012.5 0 16.8 24.2 35.3 92.3 82.9 284.0
06/05 02:00 11.5 70 7.23 6.2 20 33 1012.5 0 16.8 24.3 35.4 92.7 83.1 284.7
06/05 01:50 11.7 70 7.32 6.4 22 32 1012.6 0 16.9 24.4 35.7 93.4 84.1 288.0
06/05 01:40 11.7 69 7.22 6.2 22 30 1012.8 0 16.7 24.3 35.3 92.4 82.8 283.6
06/05 01:30 11.6 70 7.28 6.3 22 33 1013 0 16.9 24.4 35.6 93.2 83.7 286.7
06/05 01:20 11.6 71 7.38 6.5 22 30 1013 0 17.1 24.5 36.0 94.2 85.0 291.2
06/05 01:10 11.8 68 7.16 6.1 20 28 1013.1 0 16.6 24.1 35.0 91.7 81.9 280.6
06/05 01:00 11.7 69 7.22 6.2 24 35 1013 0 16.7 24.3 35.3 92.4 82.8 283.6
06/05 00:50 11.6 70 7.28 6.3 26 32 1013.1 0 16.9 24.4 35.6 93.2 83.7 286.7
06/05 00:40 11.9 67 7.1 6.1 22 28 1013.2 0 16.5 24.0 34.8 91.0 81.1 277.5
06/05 00:30 11.7 69 7.22 6.2 22 43 1013.3 0 16.7 24.3 35.3 92.5 82.8 283.7
06/05 00:20 12 67 7.14 6.2 22 32 1013.2 0 16.6 24.1 34.9 91.3 81.5 279.0
06/05 00:10 11.7 69 7.22 6.2 24 30 1013.3 0 16.7 24.3 35.3 92.5 82.8 283.7
06/05 00:00 11.7 69 7.22 6.2 24 41 1013.4 0 16.7 24.3 35.3 92.5 82.8 283.7
05/05 23:50 11.9 67 7.1 6.1 26 43 1013.5 0 16.5 24.0 34.8 91.0 81.1 277.6
05/05 23:40 11.9 67 7.1 6.1 30 39 1013.5 0 16.5 24.0 34.8 91.0 81.1 277.6
05/05 23:30 11.9 68 7.2 6.2 28 44 1013.5 0 16.7 24.2 35.2 92.0 82.4 282.1
05/05 23:20 11.9 67 7.1 6.1 33 41 1013.5 0 16.5 24.0 34.8 91.0 81.1 277.6
05/05 23:10 12 66 7.03 6 35 48 1013.7 0 16.3 23.9 34.5 90.2 80.1 274.2
05/05 23:00 11.8 68 7.16 6.1 32 46 1013.9 0 16.6 24.2 35.1 91.8 82.0 280.7
05/05 22:50 11.9 66 6.99 5.7 24 35 1013.9 0 16.2 23.9 34.4 89.9 79.7 272.8
05/05 22:40 12.1 66 7.08 5.9 37 46 1014.2 0 16.4 24.0 34.6 90.6 80.7 276.2
05/05 22:30 12.1 66 7.08 5.9 32 46 1014.2 0 16.4 24.0 34.6 90.6 80.7 276.2
05/05 22:20 12.3 66 7.17 6.1 32 39 1014.3 0 16.6 24.1 34.9 91.3 81.6 279.5
05/05 22:10 11.9 66 6.99 5.9 26 32 1014.4 0 16.2 23.9 34.4 89.9 79.7 272.9
05/05 22:00 11.9 68 7.2 6.2 20 28 1014.6 0 16.7 24.2 35.2 92.1 82.4 282.4
05/05 21:50 11.6 68 7.07 5.9 17 20 1014.7 0 16.4 24.1 34.8 91.1 81.1 277.6
05/05 21:40 11.6 69 7.17 6.1 19 30 1014.9 0 16.6 24.3 35.2 92.2 82.4 282.1
05/05 21:30 11.1 71 7.15 6 13 22 1015 0 16.6 24.4 35.4 92.6 82.7 283.0
05/05 21:20 10.8 73 7.22 6.1 9 13 1015.1 0 16.8 24.6 35.8 93.7 83.9 287.4
05/05 21:10 11.3 71 7.24 6.2 15 19 1015.1 0 16.8 24.5 35.6 93.3 83.6 286.4
05/05 21:00 11.4 72 7.39 6.5 17 24 1015.1 0 17.1 24.7 36.2 94.8 85.5 292.9
05/05 20:50 11.5 71 7.33 6.4 13 17 1015.1 0 17.0 24.6 35.9 94.0 84.6 289.8
05/05 20:40 11.4 69 7.08 5.9 17 20 1015.1 0 16.4 24.2 35.0 91.5 81.5 278.8
05/05 20:30 11.9 66 6.99 5.8 19 28 1015 0 16.2 23.9 34.4 90.0 79.8 273.0
05/05 20:20 12.4 63 6.88 5.7 19 24 1014.9 0 16.0 23.6 33.8 88.3 77.9 266.4
05/05 20:10 12.5 63 6.93 5.6 20 28 1014.8 0 16.1 23.7 33.9 88.7 78.4 268.3
05/05 20:00 12.6 63 6.97 5.8 32 43 1014.8 0 16.2 23.7 34.0 89.0 78.8 269.7
05/05 19:50 12.7 63 7.01 5.8 28 33 1014.7 0 16.2 23.7 34.1 89.3 79.2 271.1
05/05 19:40 12.6 63 6.97 5.7 20 28 1014.7 0 16.2 23.7 34.0 89.0 78.8 269.7
05/05 19:30 12.8 62 6.95 5.7 32 44 1014.7 0 16.1 23.6 33.9 88.6 78.4 268.1
05/05 19:20 12.8 62 6.95 5.7 30 35 1014.7 0 16.1 23.6 33.9 88.6 78.4 268.1
05/05 19:10 12.8 63 7.06 6.1 24 35 1014.6 0 16.3 23.8 34.3 89.7 79.7 273.0
05/05 19:00 12.7 65 7.24 6.3 19 39 1014.3 0 16.7 24.1 35.0 91.6 82.1 281.2
05/05 18:50 12.5 65 7.15 6.1 19 32 1014.3 0 16.6 24.0 34.7 90.9 81.2 277.9

Last Refresh: 06-May-2026 12:30:50

Bureau of Meteorology